createdAt,value
2023-01-23T00:00:00.850Z,33.77
2023-01-23T00:02:31.174Z,36.00
2023-01-23T00:05:01.281Z,32.73
2023-01-23T00:07:34.025Z,37.33
2023-01-23T00:10:04.098Z,36.73
2023-01-23T00:12:36.847Z,35.23
2023-01-23T00:15:08.420Z,33.30
2023-01-23T00:17:39.186Z,35.03
2023-01-23T00:20:13.348Z,34.90
2023-01-23T00:22:46.154Z,31.70
2023-01-23T00:25:18.493Z,30.43
2023-01-23T00:27:56.118Z,32.37
2023-01-23T00:30:26.200Z,32.47
2023-01-23T00:32:56.354Z,28.73
2023-01-23T00:35:26.731Z,29.40
2023-01-23T00:37:59.521Z,29.40
2023-01-23T00:40:29.668Z,34.23
2023-01-23T00:42:59.834Z,28.70
2023-01-23T00:45:30.101Z,33.33
2023-01-23T00:48:00.258Z,32.23
2023-01-23T00:50:30.332Z,27.70
2023-01-23T00:53:03.052Z,32.80
2023-01-23T00:55:33.215Z,30.47
2023-01-23T00:58:03.625Z,28.93
2023-01-23T01:00:33.788Z,27.77
2023-01-23T01:03:04.048Z,32.23
2023-01-23T01:05:34.387Z,30.70
2023-01-23T01:08:08.124Z,28.77
2023-01-23T01:10:40.222Z,28.30
2023-01-23T01:13:12.235Z,30.50
2023-01-23T01:15:44.183Z,28.57
2023-01-23T01:18:14.437Z,28.77
2023-01-23T01:20:45.680Z,31.17
2023-01-23T01:23:18.970Z,31.00
2023-01-23T01:25:49.312Z,29.73
2023-01-23T01:28:19.427Z,27.07
2023-01-23T01:30:49.535Z,28.13
2023-01-23T01:33:19.670Z,26.83
2023-01-23T01:35:49.755Z,32.87
2023-01-23T01:38:23.400Z,27.53
2023-01-23T01:40:57.562Z,26.67
2023-01-23T01:43:33.913Z,29.10
2023-01-23T01:46:21.750Z,26.47
2023-01-23T01:49:07.289Z,25.67
2023-01-23T01:51:56.138Z,28.80
2023-01-23T01:54:34.886Z,29.77
2023-01-23T01:57:11.448Z,30.33
2023-01-23T01:59:49.220Z,27.60
2023-01-23T02:02:25.642Z,30.73
2023-01-23T02:05:03.335Z,27.37
2023-01-23T02:07:44.511Z,28.17
2023-01-23T02:10:19.470Z,24.97
2023-01-23T02:12:52.630Z,24.80
2023-01-23T02:15:25.384Z,27.17
2023-01-23T02:17:57.637Z,27.10
2023-01-23T02:20:31.647Z,27.63
2023-01-23T02:23:11.858Z,26.53
2023-01-23T02:25:57.839Z,25.37
2023-01-23T02:28:41.718Z,26.73
2023-01-23T02:31:13.352Z,23.53
2023-01-23T02:33:55.432Z,24.20
2023-01-23T02:36:30.411Z,24.50
2023-01-23T02:39:13.365Z,23.50
2023-01-23T02:41:50.140Z,22.80
2023-01-23T02:44:27.866Z,22.80
2023-01-23T02:46:58.624Z,22.53
2023-01-23T02:49:28.869Z,21.93
2023-01-23T02:52:00.138Z,25.90
2023-01-23T02:54:30.326Z,24.70
2023-01-23T02:57:03.632Z,23.30
2023-01-23T02:59:54.848Z,27.17
2023-01-23T03:02:25.079Z,24.77
2023-01-23T03:04:55.646Z,24.37
2023-01-23T03:07:28.125Z,25.80
2023-01-23T03:09:58.692Z,24.23
2023-01-23T03:12:31.672Z,22.43
2023-01-23T03:15:06.160Z,24.87
2023-01-23T03:17:38.055Z,25.47
2023-01-23T03:20:09.520Z,21.20
2023-01-23T03:22:40.742Z,22.37
2023-01-23T03:25:12.661Z,21.53
2023-01-23T03:27:45.327Z,24.67
2023-01-23T03:30:17.190Z,22.93
2023-01-23T03:32:50.980Z,26.93
2023-01-23T03:35:22.609Z,22.27
2023-01-23T03:37:53.118Z,21.93
2023-01-23T03:40:40.865Z,22.83
2023-01-23T03:43:13.888Z,19.57
2023-01-23T03:45:43.985Z,23.07
2023-01-23T03:48:14.077Z,23.27
2023-01-23T03:50:44.201Z,20.20
2023-01-23T03:53:14.435Z,21.63
2023-01-23T03:55:44.662Z,24.37
2023-01-23T03:58:17.855Z,23.40
2023-01-23T04:00:53.228Z,23.23
2023-01-23T04:03:24.561Z,37.43
2023-01-23T04:05:59.881Z,35.73
2023-01-23T04:08:32.362Z,25.27
2023-01-23T04:11:08.258Z,28.63
2023-01-23T04:13:41.567Z,37.70
2023-01-23T04:16:11.987Z,46.60
2023-01-23T04:18:44.792Z,38.03
2023-01-23T04:21:16.902Z,28.43
2023-01-23T04:23:47.183Z,23.53
2023-01-23T04:26:17.516Z,22.47
2023-01-23T04:28:50.422Z,22.30
2023-01-23T04:31:21.777Z,23.93
2023-01-23T04:33:51.909Z,23.97
2023-01-23T04:36:22.808Z,24.00
2023-01-23T04:38:53.320Z,22.47
2023-01-23T04:41:27.548Z,23.50
2023-01-23T04:44:19.955Z,24.83
2023-01-23T04:46:50.395Z,24.60
2023-01-23T04:49:21.501Z,26.17
2023-01-23T04:51:52.815Z,24.77
2023-01-23T04:54:25.106Z,23.07
2023-01-23T04:56:55.317Z,24.20
2023-01-23T04:59:27.991Z,25.60
2023-01-23T05:01:58.219Z,26.43
2023-01-23T05:04:28.309Z,23.33
2023-01-23T05:06:58.483Z,21.87
2023-01-23T05:09:28.556Z,25.03
2023-01-23T05:11:58.707Z,23.27
2023-01-23T05:14:31.656Z,23.80
2023-01-23T05:17:01.840Z,22.37
2023-01-23T05:19:31.913Z,24.83
2023-01-23T05:22:02.055Z,22.87
2023-01-23T05:24:32.264Z,21.77
2023-01-23T05:27:03.476Z,23.20
2023-01-23T05:29:36.311Z,25.17
2023-01-23T05:32:09.412Z,21.83
2023-01-23T05:34:39.928Z,20.13
2023-01-23T05:37:09.963Z,23.57
2023-01-23T05:39:40.113Z,24.23
2023-01-23T05:42:13.803Z,23.57
2023-01-23T05:44:48.187Z,21.90
2023-01-23T05:47:18.416Z,20.80
2023-01-23T05:49:48.589Z,23.93
2023-01-23T05:52:21.327Z,22.07
2023-01-23T05:54:51.582Z,23.80
2023-01-23T05:57:21.933Z,21.77
2023-01-23T05:59:57.218Z,21.87
2023-01-23T06:02:29.604Z,23.53
2023-01-23T06:04:59.903Z,20.70
2023-01-23T06:07:30.085Z,24.80
2023-01-23T06:10:01.171Z,21.27
2023-01-23T06:12:32.618Z,21.23
2023-01-23T06:15:05.790Z,25.67
2023-01-23T06:17:35.869Z,26.37
2023-01-23T06:20:08.027Z,31.97
2023-01-23T06:22:38.135Z,33.23
2023-01-23T06:25:09.758Z,48.57
2023-01-23T06:27:39.865Z,25.33
2023-01-23T06:30:15.885Z,30.63
2023-01-23T06:32:46.283Z,23.67
2023-01-23T06:35:16.485Z,27.80
2023-01-23T06:37:47.104Z,22.07
2023-01-23T06:40:20.197Z,20.50
2023-01-23T06:42:50.973Z,23.53
2023-01-23T06:45:23.732Z,20.67
2023-01-23T06:47:55.627Z,30.10
2023-01-23T06:50:25.761Z,23.67
2023-01-23T06:52:55.810Z,22.03
2023-01-23T06:55:25.964Z,20.80
2023-01-23T06:57:56.035Z,20.97
2023-01-23T07:00:29.425Z,24.17
2023-01-23T07:03:04.067Z,21.60
2023-01-23T07:05:35.920Z,19.30
2023-01-23T07:08:06.182Z,20.70
2023-01-23T07:10:37.887Z,19.67
2023-01-23T07:13:08.406Z,21.07
2023-01-23T07:15:41.335Z,23.17
2023-01-23T07:18:13.015Z,20.60
2023-01-23T07:20:43.181Z,20.13
2023-01-23T07:23:13.832Z,22.13
2023-01-23T07:25:44.529Z,20.70
2023-01-23T07:28:17.793Z,24.40
2023-01-23T07:30:53.486Z,58.10
2023-01-23T07:33:23.603Z,39.87
2023-01-23T07:35:53.727Z,23.33
2023-01-23T07:38:26.339Z,23.57
2023-01-23T07:41:01.297Z,23.57
2023-01-23T07:43:31.434Z,21.97
2023-01-23T07:46:05.831Z,22.90
2023-01-23T07:48:35.961Z,21.40
2023-01-23T07:51:07.154Z,22.93
2023-01-23T07:53:39.115Z,22.50
2023-01-23T07:56:10.817Z,21.50
2023-01-23T07:58:43.896Z,23.50
2023-01-23T08:01:16.715Z,23.37
2023-01-23T08:03:46.901Z,21.33
2023-01-23T08:06:17.337Z,19.60
2023-01-23T08:08:47.565Z,20.67
2023-01-23T08:11:18.110Z,25.37
2023-01-23T08:13:52.745Z,24.47
2023-01-23T08:16:25.673Z,23.50
2023-01-23T08:18:55.926Z,22.53
2023-01-23T08:21:26.517Z,22.87
2023-01-23T08:23:56.571Z,22.70
2023-01-23T08:26:26.675Z,20.20
2023-01-23T08:28:57.028Z,19.73
2023-01-23T08:31:29.943Z,16.63
2023-01-23T08:34:00.714Z,17.77
2023-01-23T08:36:31.249Z,18.57
2023-01-23T08:39:03.756Z,18.93
2023-01-23T08:41:33.982Z,17.50
2023-01-23T08:44:04.478Z,18.47
2023-01-23T08:46:37.412Z,16.37
2023-01-23T08:49:08.832Z,17.17
2023-01-23T08:51:40.075Z,17.10
2023-01-23T08:54:12.681Z,17.23
2023-01-23T08:56:43.504Z,16.63
2023-01-23T08:59:13.628Z,17.57
2023-01-23T09:01:48.415Z,18.77
2023-01-23T09:04:18.837Z,21.47
2023-01-23T09:06:48.919Z,23.53
2023-01-23T09:09:19.263Z,25.93
2023-01-23T09:11:49.361Z,19.83
2023-01-23T09:14:19.558Z,18.00
2023-01-23T09:16:52.352Z,19.07
2023-01-23T09:19:22.436Z,18.67
2023-01-23T09:21:57.010Z,17.20
2023-01-23T09:24:27.325Z,18.33
2023-01-23T09:26:57.450Z,19.90
2023-01-23T09:29:27.650Z,47.00
2023-01-23T09:32:02.066Z,58.10
2023-01-23T09:34:32.647Z,19.47
2023-01-23T09:37:02.763Z,22.90
2023-01-23T09:39:32.846Z,22.90
2023-01-23T09:42:08.929Z,19.07
2023-01-23T09:44:45.290Z,21.67
2023-01-23T09:47:27.386Z,24.27
2023-01-23T09:50:04.106Z,17.60
2023-01-23T09:52:39.609Z,19.73
2023-01-23T09:55:21.341Z,16.97
2023-01-23T09:58:01.101Z,19.10
2023-01-23T10:00:37.058Z,16.37
2023-01-23T10:03:19.037Z,19.47
2023-01-23T10:06:03.778Z,17.47
2023-01-23T10:08:45.608Z,15.10
2023-01-23T10:11:27.074Z,15.53
2023-01-23T10:14:41.479Z,17.00
2023-01-23T10:17:26.008Z,17.77
2023-01-23T10:20:32.190Z,15.00
2023-01-23T10:23:19.356Z,15.33
2023-01-23T10:25:51.261Z,14.03
2023-01-23T10:28:38.960Z,15.47
2023-01-23T10:31:19.232Z,15.60
2023-01-23T10:34:00.075Z,16.30
2023-01-23T10:36:53.928Z,14.80
2023-01-23T10:39:32.243Z,14.07
2023-01-23T10:42:03.091Z,18.40
2023-01-23T10:44:33.319Z,19.83
2023-01-23T10:47:14.900Z,31.90
2023-01-23T10:49:48.983Z,22.30
2023-01-23T10:52:49.357Z,23.43
2023-01-23T10:55:33.276Z,38.13
2023-01-23T10:58:07.353Z,32.50
2023-01-23T11:00:42.397Z,20.83
2023-01-23T11:03:31.330Z,17.60
2023-01-23T11:06:10.695Z,19.83
2023-01-23T11:08:54.077Z,16.83
2023-01-23T11:11:29.153Z,19.20
2023-01-23T11:14:16.228Z,18.37
2023-01-23T11:16:46.805Z,20.97
2023-01-23T11:19:25.286Z,16.97
2023-01-23T11:21:58.991Z,16.83
2023-01-23T11:24:41.820Z,13.93
2023-01-23T11:27:27.936Z,17.73
2023-01-23T11:30:34.279Z,18.93
2023-01-23T11:33:16.714Z,22.17
2023-01-23T11:36:03.624Z,22.17
2023-01-23T11:38:52.770Z,20.73
2023-01-23T11:41:33.584Z,16.60
2023-01-23T11:44:14.743Z,25.50
2023-01-23T11:47:14.599Z,30.70
2023-01-23T11:50:14.262Z,27.43
2023-01-23T11:53:11.434Z,24.90
2023-01-23T11:56:16.159Z,66.17
2023-01-23T11:59:26.054Z,47.50
2023-01-23T12:02:38.464Z,15.23
2023-01-23T12:05:29.819Z,15.27
2023-01-23T12:08:19.044Z,15.07
2023-01-23T12:11:12.600Z,11.63
2023-01-23T12:14:31.077Z,11.87
2023-01-23T12:17:29.244Z,10.60
2023-01-23T12:20:23.585Z,9.73
2023-01-23T12:23:16.840Z,8.67
2023-01-23T12:26:02.565Z,7.83
2023-01-23T12:29:05.038Z,6.43
2023-01-23T12:31:59.735Z,5.60
2023-01-23T12:35:00.335Z,5.20
2023-01-23T12:37:54.160Z,5.90
2023-01-23T12:40:37.688Z,5.40
2023-01-23T12:43:19.546Z,5.57
2023-01-23T12:46:01.752Z,6.70
2023-01-23T12:48:43.878Z,6.47
2023-01-23T12:51:23.049Z,12.83
2023-01-23T12:54:00.700Z,7.47
2023-01-23T12:56:36.802Z,7.70
2023-01-23T12:59:19.297Z,7.33
2023-01-23T13:02:09.776Z,5.00
2023-01-23T13:05:03.840Z,6.07
2023-01-23T13:07:51.415Z,6.20
2023-01-23T13:11:11.881Z,6.03
2023-01-23T13:13:45.116Z,8.57
2023-01-23T13:16:18.273Z,6.13
2023-01-23T13:19:13.573Z,8.27
2023-01-23T13:22:22.278Z,6.27
2023-01-23T13:25:17.630Z,6.77
2023-01-23T13:27:53.059Z,6.67
2023-01-23T13:30:43.147Z,9.40
2023-01-23T13:34:10.263Z,7.37
2023-01-23T13:36:49.636Z,6.67
2023-01-23T13:39:33.715Z,6.90
2023-01-23T13:42:43.028Z,7.97
2023-01-23T13:45:34.555Z,5.67
2023-01-23T14:21:41.109Z,8.10
2023-01-23T14:24:25.209Z,7.87
2023-01-23T14:27:07.830Z,9.37
2023-01-23T14:29:41.090Z,11.10
2023-01-23T14:32:26.186Z,10.50
2023-01-23T14:34:56.305Z,11.97
2023-01-23T14:37:27.746Z,10.17
2023-01-23T14:40:11.721Z,9.70
2023-01-23T14:42:43.432Z,11.27
2023-01-23T14:45:17.576Z,9.40
2023-01-23T14:47:59.687Z,9.57
2023-01-23T14:50:35.343Z,10.80
2023-01-23T14:53:09.908Z,14.60
2023-01-23T14:55:44.350Z,15.33
2023-01-23T14:58:23.602Z,16.50
2023-01-23T15:00:57.977Z,22.63
2023-01-23T15:03:45.794Z,25.43
2023-01-23T15:06:23.573Z,38.13
2023-01-23T15:08:54.631Z,49.43
2023-01-23T15:11:31.917Z,91.37
2023-01-23T15:14:04.437Z,74.63
2023-01-23T15:16:41.953Z,73.73
2023-01-23T15:19:25.077Z,97.23
2023-01-23T15:22:20.242Z,44.80
2023-01-23T15:24:51.036Z,31.47
2023-01-23T15:27:35.215Z,41.07
2023-01-23T15:30:40.116Z,24.63
2023-01-23T15:33:33.931Z,82.63
2023-01-23T15:36:20.036Z,38.80
2023-01-23T15:38:50.656Z,29.33
2023-01-23T15:41:33.884Z,20.57
2023-01-23T15:44:04.585Z,18.30
2023-01-23T15:46:34.780Z,15.87
2023-01-23T15:49:16.450Z,19.77
2023-01-23T15:51:54.583Z,23.20
2023-01-23T15:54:31.569Z,21.23
2023-01-23T15:57:09.218Z,20.33
2023-01-23T15:59:40.194Z,11.77
2023-01-23T16:02:30.490Z,8.73
2023-01-23T16:05:04.208Z,16.00
2023-01-23T16:07:36.972Z,13.00
2023-01-23T16:10:20.673Z,14.70
2023-01-23T16:12:53.084Z,13.43
2023-01-23T16:15:27.115Z,13.03
2023-01-23T16:17:58.913Z,11.50
2023-01-23T16:20:38.187Z,11.57
2023-01-23T16:23:16.891Z,13.27
2023-01-23T16:25:47.911Z,11.70
2023-01-23T16:28:20.286Z,12.27
2023-01-23T16:30:53.837Z,17.57
2023-01-23T16:33:26.122Z,19.23
2023-01-23T16:35:59.081Z,9.73
2023-01-23T16:38:32.177Z,14.07
2023-01-23T16:41:04.090Z,13.13
2023-01-23T16:43:35.670Z,8.77
2023-01-23T16:46:05.782Z,12.67
2023-01-23T16:48:36.139Z,11.50
2023-01-23T16:51:20.062Z,12.67
2023-01-23T16:53:56.055Z,11.17
2023-01-23T16:56:33.075Z,10.50
2023-01-23T16:59:03.591Z,10.33
2023-01-23T17:01:39.959Z,8.87
2023-01-23T17:04:10.521Z,13.30
2023-01-23T17:06:43.165Z,16.37
2023-01-23T17:09:15.829Z,12.70
2023-01-23T17:11:51.093Z,14.93
2023-01-23T17:14:28.754Z,16.73
2023-01-23T17:17:06.120Z,15.37
2023-01-23T17:19:41.647Z,15.53
2023-01-23T17:22:24.108Z,18.27
2023-01-23T17:24:54.584Z,19.50
2023-01-23T17:27:24.949Z,27.43
2023-01-23T17:29:57.489Z,23.33
2023-01-23T17:32:39.079Z,16.50
2023-01-23T17:35:19.416Z,18.63
2023-01-23T17:37:53.135Z,51.73
2023-01-23T17:40:23.947Z,29.57
2023-01-23T17:42:54.405Z,22.00
2023-01-23T17:45:28.009Z,17.83
2023-01-23T17:48:01.146Z,18.90
2023-01-23T17:50:31.362Z,19.17
2023-01-23T17:53:05.255Z,21.33
2023-01-23T17:55:35.441Z,21.07
2023-01-23T17:58:05.511Z,18.00
2023-01-23T18:00:35.795Z,37.93
2023-01-23T18:03:06.950Z,40.13
2023-01-23T18:05:37.463Z,32.67
2023-01-23T18:08:16.580Z,33.73
2023-01-23T18:10:51.467Z,32.37
2023-01-23T18:13:31.686Z,23.93
2023-01-23T18:16:14.388Z,15.87
2023-01-23T18:18:54.847Z,15.97
2023-01-23T18:21:26.083Z,17.83
2023-01-23T18:23:59.824Z,15.13
2023-01-23T18:26:46.225Z,13.17
2023-01-23T18:29:30.342Z,14.40
2023-01-23T18:32:54.492Z,16.10
2023-01-23T18:35:45.500Z,13.97
2023-01-23T18:38:23.578Z,13.17
2023-01-23T18:41:19.213Z,13.27
2023-01-23T18:43:56.545Z,12.83
2023-01-23T18:46:28.022Z,13.37
2023-01-23T18:48:59.200Z,19.03
2023-01-23T18:51:42.439Z,15.07
2023-01-23T18:54:28.190Z,18.10
2023-01-23T18:57:26.023Z,14.00
2023-01-23T19:00:20.726Z,13.80
2023-01-23T19:02:55.359Z,18.47
2023-01-23T19:05:37.047Z,28.60
2023-01-23T19:08:08.547Z,30.40
2023-01-23T19:10:48.939Z,15.67
2023-01-23T19:13:31.556Z,20.27
2023-01-23T19:16:11.433Z,17.00
2023-01-23T19:18:57.935Z,14.73
2023-01-23T19:21:31.374Z,27.47
2023-01-23T19:24:04.341Z,57.13
2023-01-23T19:26:39.374Z,101.03
2023-01-23T19:29:22.004Z,58.27
2023-01-23T19:32:09.682Z,26.90
2023-01-23T19:34:39.993Z,16.27
2023-01-23T19:37:10.131Z,16.97
2023-01-23T19:39:40.468Z,15.73
2023-01-23T19:42:17.304Z,19.00
2023-01-23T19:44:50.061Z,16.63
2023-01-23T19:47:20.153Z,16.93
2023-01-23T19:49:50.209Z,18.40
2023-01-23T19:52:20.777Z,19.80
2023-01-23T19:54:50.890Z,18.10
2023-01-23T19:57:20.980Z,18.60
2023-01-23T19:59:53.641Z,17.47
2023-01-23T20:02:25.579Z,18.73
2023-01-23T20:04:57.721Z,32.07
2023-01-23T20:07:27.792Z,22.17
2023-01-23T20:09:57.874Z,19.17
2023-01-23T20:12:28.054Z,16.73
2023-01-23T20:15:02.006Z,13.80
2023-01-23T20:17:32.138Z,14.13
2023-01-23T20:20:04.732Z,16.67
2023-01-23T20:22:34.853Z,12.90
2023-01-23T20:25:04.954Z,14.80
2023-01-23T20:27:35.103Z,14.97
2023-01-23T20:30:14.935Z,15.27
2023-01-23T20:32:45.424Z,13.83
2023-01-23T20:35:15.739Z,13.97
2023-01-23T20:37:46.145Z,12.77
2023-01-23T20:40:16.762Z,14.10
2023-01-23T20:42:47.122Z,14.23
2023-01-23T20:45:20.482Z,14.70
2023-01-23T20:47:53.416Z,16.53
2023-01-23T20:50:23.495Z,18.93
2023-01-23T20:53:06.153Z,15.40
2023-01-23T20:55:36.434Z,14.47
2023-01-23T20:58:18.972Z,17.93
2023-01-23T21:00:51.695Z,15.40
2023-01-23T21:03:21.912Z,14.37
2023-01-23T21:05:52.177Z,13.60
2023-01-23T21:08:22.308Z,13.80
2023-01-23T21:10:53.046Z,13.67
2023-01-23T21:13:23.459Z,13.67
2023-01-23T21:16:04.829Z,12.53
2023-01-23T21:18:41.251Z,14.07
2023-01-23T21:21:14.254Z,16.77
2023-01-23T21:23:47.153Z,12.30
2023-01-23T21:26:18.054Z,12.00
2023-01-23T21:28:50.538Z,12.80
2023-01-23T21:31:29.217Z,13.63
2023-01-23T21:34:02.933Z,12.83
2023-01-23T21:36:33.348Z,13.03
2023-01-23T21:39:04.034Z,11.40
2023-01-23T21:41:34.540Z,12.70
2023-01-23T21:44:04.728Z,12.13
2023-01-23T21:46:37.419Z,13.37
2023-01-23T21:49:07.781Z,12.17
2023-01-23T21:51:38.049Z,13.23
2023-01-23T21:54:08.362Z,12.67
2023-01-23T21:56:38.585Z,13.37
2023-01-23T21:59:10.958Z,12.67
2023-01-23T22:01:42.879Z,12.87
2023-01-23T22:04:16.601Z,11.77
2023-01-23T22:06:48.529Z,12.73
2023-01-23T22:09:20.859Z,11.67
2023-01-23T22:11:52.179Z,12.07
2023-01-23T22:14:22.543Z,22.60
2023-01-23T22:16:55.246Z,26.87
2023-01-23T22:19:26.023Z,25.17
2023-01-23T22:21:57.529Z,21.93
2023-01-23T22:24:27.824Z,17.63
2023-01-23T22:26:57.895Z,16.93
2023-01-23T22:29:27.988Z,23.37
2023-01-23T22:32:00.727Z,31.90
2023-01-23T22:34:31.194Z,26.97
2023-01-23T22:37:01.215Z,21.50
2023-01-23T22:39:31.412Z,14.23
2023-01-23T22:42:02.696Z,12.23
2023-01-23T22:44:34.777Z,14.37
2023-01-23T22:47:08.791Z,19.50
2023-01-23T22:49:39.041Z,19.07
2023-01-23T22:52:09.448Z,15.23
2023-01-23T22:54:41.741Z,17.77
2023-01-23T22:57:13.005Z,16.07
2023-01-23T22:59:43.185Z,17.30
2023-01-23T23:02:15.874Z,19.73
2023-01-23T23:04:49.995Z,10.70
2023-01-23T23:07:20.827Z,12.90
2023-01-23T23:09:50.942Z,24.53
2023-01-23T23:12:21.067Z,24.70
2023-01-23T23:14:51.206Z,21.13
2023-01-23T23:17:23.905Z,42.17
2023-01-23T23:19:54.076Z,48.87
2023-01-23T23:22:24.535Z,30.83
2023-01-23T23:24:54.705Z,18.73
2023-01-23T23:27:24.809Z,63.50
2023-01-23T23:29:54.927Z,28.20
2023-01-23T23:32:27.812Z,41.30
2023-01-23T23:34:59.343Z,75.60
2023-01-23T23:37:29.470Z,77.37
2023-01-23T23:39:59.538Z,54.83
2023-01-23T23:42:29.658Z,60.37
2023-01-23T23:44:59.761Z,17.97
2023-01-23T23:47:34.452Z,16.40
2023-01-23T23:50:07.487Z,17.63
2023-01-23T23:52:40.350Z,17.30
2023-01-23T23:55:11.855Z,33.10
2023-01-23T23:57:42.334Z,23.07
